Terminal Aerodrome Forecast
Issued by NWS Knoxville/Tri Cities, TN

Home | Current Version | Previous Version | Text Only | Print | Product List | Glossary On
Versions: 1 2 3 4 5 6 7 8 9 10 11 12 13 14 15 16 17 18 19 20 21 22 23 24 25 26 27 28 29 30 31 32 33 34 35 36 37 38 39 40 41 42 43 44 45 46
133
FTUS44 KMRX 221142
TAFCHA
TAF
KCHA 221142Z 2212/2312 16008KT P6SM VCSH BKN015 OVC035
     FM222000 10006KT 5SM -TSRA BR BKN010 OVC025CB
     FM230200 30008KT 2SM -RA BR OVC007
     FM230900 31011KT 4SM -RA BR OVC004=

USA.gov is the U.S. government's official web portal to all federal, state and local government web resources and services.